createdAt,value
2023-04-10T00:03:37.887Z,101201.16
2023-04-10T00:08:36.991Z,101192.91
2023-04-10T00:13:35.729Z,101196.81
2023-04-10T00:18:34.476Z,101196.22
2023-04-10T00:23:34.808Z,101202.19
2023-04-10T00:28:33.673Z,101202.34
2023-04-10T00:33:32.538Z,101198.56
2023-04-10T00:38:31.631Z,101189.91
2023-04-10T00:43:31.374Z,101186.88
2023-04-10T00:48:30.547Z,101181.97
2023-04-10T00:53:29.530Z,101180.69
2023-04-10T00:58:28.957Z,101183.38
2023-04-10T01:03:28.165Z,101179.28
2023-04-10T01:08:37.612Z,101181.03
2023-04-10T01:13:46.210Z,101194.03
2023-04-10T01:18:51.062Z,101180.06
2023-04-10T01:24:07.802Z,101202.56
2023-04-10T01:29:13.240Z,101199.84
2023-04-10T01:34:20.623Z,101197.63
2023-04-10T01:39:21.339Z,101194.66
2023-04-10T01:44:25.930Z,101195.19
2023-04-10T01:49:28.263Z,101190.13
2023-04-10T01:54:35.695Z,101186.97
2023-04-10T01:59:35.411Z,101191.41
2023-04-10T02:04:34.867Z,101185.59
2023-04-10T02:09:42.857Z,101187.09
2023-04-10T02:14:45.334Z,101184.09
2023-04-10T02:19:46.675Z,101182.28
2023-04-10T02:24:45.925Z,101179.28
2023-04-10T02:29:44.650Z,101171.03
2023-04-10T02:34:43.843Z,101172.41
2023-04-10T02:39:42.745Z,101161.47
2023-04-10T02:44:41.974Z,101167.31
2023-04-10T02:49:41.055Z,101171.34
2023-04-10T02:54:45.370Z,101171.19
2023-04-10T02:59:44.766Z,101168.53
2023-04-10T03:04:44.674Z,101163.88
2023-04-10T03:09:44.564Z,101160.59
2023-04-10T03:14:43.690Z,101161.84
2023-04-10T03:19:42.432Z,101163.63
2023-04-10T03:24:41.441Z,101180.34
2023-04-10T03:29:40.489Z,101172.28
2023-04-10T03:34:39.621Z,101180.25
2023-04-10T03:39:38.511Z,101176.16
2023-04-10T03:44:38.193Z,101178.75
2023-04-10T03:49:37.443Z,101186.81
2023-04-10T03:54:38.972Z,101182.66
2023-04-10T03:59:39.592Z,101180.97
2023-04-10T04:04:43.817Z,101178.06
2023-04-10T04:10:02.209Z,101182.28
2023-04-10T04:15:14.569Z,101182.25
2023-04-10T04:20:27.088Z,101192.91
2023-04-10T04:25:49.719Z,101194.06
2023-04-10T04:31:08.046Z,101195.78
2023-04-10T04:36:36.348Z,101191.66
2023-04-10T04:41:58.444Z,101199.09
2023-04-10T04:47:24.674Z,101202.44
2023-04-10T04:52:36.586Z,101201.19
2023-04-10T04:57:47.639Z,101195.09
2023-04-10T05:03:07.107Z,101194.16
2023-04-10T05:08:31.416Z,101200.81
2023-04-10T05:13:41.628Z,101212.88
2023-04-10T05:18:56.105Z,101210.03
2023-04-10T05:24:21.742Z,101211.47
2023-04-10T05:29:40.595Z,101211.19
2023-04-10T05:35:06.241Z,101206.13
2023-04-10T05:40:31.485Z,101216.56
2023-04-10T05:45:49.565Z,101213.84
2023-04-10T05:50:59.508Z,101215.63
2023-04-10T05:56:13.233Z,101214.47
2023-04-10T06:01:35.642Z,101206.31
2023-04-10T06:06:35.780Z,101211.19
2023-04-10T06:11:34.637Z,101207.06
2023-04-10T06:16:33.699Z,101204.91
2023-04-10T06:21:33.069Z,101196.03
2023-04-10T06:26:31.940Z,101207.41
2023-04-10T06:31:34.214Z,101194.25
2023-04-10T06:36:33.681Z,101192.63
2023-04-10T06:41:35.953Z,101192.03
2023-04-10T06:46:46.404Z,101199.97
2023-04-10T06:51:46.186Z,101195.13
2023-04-10T06:56:45.047Z,101197.34
2023-04-10T07:01:44.159Z,101193.47
2023-04-10T07:07:08.467Z,101187.31
2023-04-10T07:12:07.552Z,101180.28
2023-04-10T07:17:06.416Z,101180.66
2023-04-10T07:22:05.216Z,101187.19
2023-04-10T07:27:04.131Z,101178.00
2023-04-10T07:32:03.017Z,101186.00
2023-04-10T07:37:01.978Z,101169.66
2023-04-10T07:42:00.955Z,101159.84
2023-04-10T07:46:59.681Z,101160.72
2023-04-10T07:51:58.561Z,101159.63
2023-04-10T07:56:57.347Z,101157.50
2023-04-10T08:01:56.213Z,101156.06
2023-04-10T08:06:55.258Z,101150.38
2023-04-10T08:11:54.221Z,101148.63
2023-04-10T08:16:53.042Z,101143.06
2023-04-10T08:21:51.810Z,101142.22
2023-04-10T08:26:50.663Z,101136.81
2023-04-10T08:31:49.743Z,101129.31
2023-04-10T08:36:48.537Z,101129.34
2023-04-10T08:41:47.337Z,101118.66
2023-04-10T08:46:46.560Z,101107.19
2023-04-10T08:51:56.466Z,101111.59
2023-04-10T08:56:56.863Z,101104.72
2023-04-10T09:01:57.526Z,101103.81
2023-04-10T09:06:56.388Z,101102.44
2023-04-10T09:11:55.465Z,101091.59
2023-04-10T09:17:09.992Z,101086.31
2023-04-10T09:22:09.041Z,101078.44
2023-04-10T09:27:08.672Z,101082.97
2023-04-10T09:32:07.463Z,101081.41
2023-04-10T09:37:06.269Z,101076.31
2023-04-10T09:42:05.074Z,101073.78
2023-04-10T09:47:18.251Z,101061.34
2023-04-10T09:52:25.796Z,101052.88
2023-04-10T09:57:28.422Z,101051.28
2023-04-10T10:02:31.571Z,101043.59
2023-04-10T10:07:31.339Z,101024.44
2023-04-10T10:12:34.719Z,101016.78
2023-04-10T10:17:43.629Z,101018.75
2023-04-10T10:22:43.042Z,101011.28
2023-04-10T10:27:42.267Z,101001.78
2023-04-10T10:32:42.053Z,100987.59
2023-04-10T10:37:42.764Z,100990.41
2023-04-10T10:42:57.685Z,100986.25
2023-04-10T10:47:57.001Z,100984.34
2023-04-10T10:52:57.818Z,100971.25
2023-04-10T10:57:59.765Z,100956.97
2023-04-10T11:03:08.249Z,100962.38
2023-04-10T11:08:09.033Z,100943.81
2023-04-10T11:13:18.533Z,100933.72
2023-04-10T11:18:17.372Z,100921.69
2023-04-10T11:23:16.612Z,100921.16
2023-04-10T11:28:34.736Z,100915.97
2023-04-10T11:33:33.673Z,100912.34
2023-04-10T11:38:32.756Z,100910.09
2023-04-10T11:43:32.391Z,100889.44
2023-04-10T11:48:31.898Z,100872.19
2023-04-10T11:53:30.883Z,100870.03
2023-04-10T11:58:32.052Z,100871.38
2023-04-10T12:03:41.803Z,100860.44
2023-04-10T12:08:45.302Z,100852.78
2023-04-10T12:13:44.167Z,100845.34
2023-04-10T12:18:43.230Z,100842.88
2023-04-10T12:23:42.504Z,100838.50
2023-04-10T12:28:42.807Z,100841.75
2023-04-10T12:33:47.251Z,100841.72
2023-04-10T12:38:46.343Z,100841.09
2023-04-10T12:43:45.478Z,100835.50
2023-04-10T12:48:44.265Z,100822.13
2023-04-10T12:53:46.748Z,100813.53
2023-04-10T12:58:46.165Z,100819.03
2023-04-10T13:03:46.719Z,100806.34
2023-04-10T13:08:45.653Z,100803.34
2023-04-10T13:13:44.595Z,100790.78
2023-04-10T13:18:43.381Z,100780.94
2023-04-10T13:23:42.503Z,100793.41
2023-04-10T13:28:41.305Z,100770.28
2023-04-10T13:33:40.018Z,100767.63
2023-04-10T13:38:38.836Z,100764.22
2023-04-10T13:43:37.833Z,100759.75
2023-04-10T13:48:41.288Z,100749.38
2023-04-10T13:53:40.357Z,100731.88
2023-04-10T13:58:39.327Z,100726.09
2023-04-10T14:03:38.619Z,100727.13
2023-04-10T14:08:37.533Z,100705.75
2023-04-10T14:13:36.341Z,100706.81
2023-04-10T14:18:36.572Z,100698.88
2023-04-10T14:23:36.233Z,100690.69
2023-04-10T14:28:35.195Z,100687.41
2023-04-10T14:33:35.105Z,100688.00
2023-04-10T14:38:33.930Z,100671.44
2023-04-10T14:43:32.674Z,100668.44
2023-04-10T14:48:31.565Z,100663.81
2023-04-10T14:53:30.642Z,100659.34
2023-04-10T14:58:29.653Z,100662.34
2023-04-10T15:03:28.460Z,100644.88
2023-04-10T15:08:27.424Z,100639.13
2023-04-10T15:13:26.427Z,100633.88
2023-04-10T15:18:25.987Z,100624.13
2023-04-10T15:23:24.916Z,100606.66
2023-04-10T15:28:23.941Z,100602.81
2023-04-10T15:33:22.849Z,100606.09
2023-04-10T15:38:21.884Z,100592.19
2023-04-10T15:43:20.678Z,100588.66
2023-04-10T15:48:22.600Z,100577.19
2023-04-10T15:53:21.618Z,100570.63
2023-04-10T15:58:20.653Z,100564.34
2023-04-10T16:03:19.586Z,100565.72
2023-04-10T16:08:18.584Z,100554.53
2023-04-10T16:13:17.489Z,100541.41
2023-04-10T16:18:16.330Z,100535.13
2023-04-10T16:23:15.311Z,100533.22
2023-04-10T16:28:14.148Z,100521.78
2023-04-10T16:33:12.904Z,100526.13
2023-04-10T16:38:11.883Z,100521.22
2023-04-10T16:43:11.161Z,100523.66
2023-04-10T16:48:09.878Z,100519.28
2023-04-10T16:53:08.729Z,100508.38
2023-04-10T16:58:07.743Z,100507.56
2023-04-10T17:03:07.195Z,100496.03
2023-04-10T17:08:06.490Z,100492.69
2023-04-10T17:13:05.489Z,100485.84
2023-04-10T17:18:04.284Z,100480.63
2023-04-10T17:23:03.132Z,100483.53
2023-04-10T17:28:02.105Z,100480.00
2023-04-10T17:33:01.065Z,100467.06
2023-04-10T17:37:59.887Z,100465.09
2023-04-10T17:42:58.643Z,100467.53
2023-04-10T17:47:57.492Z,100466.53
2023-04-10T17:52:56.529Z,100465.03
2023-04-10T17:57:57.644Z,100458.72
2023-04-10T18:03:00.988Z,100457.56
2023-04-10T18:07:59.882Z,100444.16
2023-04-10T18:12:58.825Z,100441.41
2023-04-10T18:17:57.787Z,100439.16
2023-04-10T18:22:56.661Z,100441.75
2023-04-10T18:28:12.913Z,100432.78
2023-04-10T18:33:14.887Z,100431.72
2023-04-10T18:38:14.326Z,100413.63
2023-04-10T18:43:13.140Z,100413.97
2023-04-10T18:48:12.014Z,100407.06
2023-04-10T18:53:10.860Z,100411.06
2023-04-10T18:58:09.774Z,100402.66
2023-04-10T19:03:08.628Z,100397.91
2023-04-10T19:08:07.537Z,100394.16
2023-04-10T19:13:06.523Z,100390.38
2023-04-10T19:18:05.386Z,100389.47
2023-04-10T19:23:04.253Z,100384.50
2023-04-10T19:28:03.183Z,100373.41
2023-04-10T19:33:02.012Z,100369.78
2023-04-10T19:38:01.245Z,100350.03
2023-04-10T19:43:02.000Z,100343.91
2023-04-10T19:48:00.931Z,100336.59
2023-04-10T19:52:59.862Z,100329.56
2023-04-10T19:57:58.663Z,100329.41
2023-04-10T20:02:57.705Z,100325.31
2023-04-10T20:07:56.710Z,100329.69
2023-04-10T20:12:55.621Z,100323.16
2023-04-10T20:17:54.535Z,100322.22
2023-04-10T20:22:53.337Z,100301.63
2023-04-10T20:27:52.112Z,100300.63
2023-04-10T20:32:51.063Z,100291.75
2023-04-10T20:37:49.983Z,100276.91
2023-04-10T20:42:49.179Z,100257.19
2023-04-10T20:47:48.014Z,100254.19
2023-04-10T20:52:47.254Z,100254.66
2023-04-10T20:57:46.138Z,100249.94
2023-04-10T21:02:45.043Z,100245.03
2023-04-10T21:07:45.952Z,100237.78
2023-04-10T21:12:44.752Z,100237.78
2023-04-10T21:17:44.857Z,100234.66
2023-04-10T21:22:43.873Z,100229.91
2023-04-10T21:27:42.763Z,100224.66
2023-04-10T21:32:41.769Z,100221.31
2023-04-10T21:37:40.718Z,100228.78
2023-04-10T21:42:39.692Z,100224.41
2023-04-10T21:47:38.480Z,100205.09
2023-04-10T21:52:37.443Z,100189.09
2023-04-10T21:57:36.458Z,100189.19
2023-04-10T22:02:35.599Z,100181.72
2023-04-10T22:07:34.445Z,100176.31
2023-04-10T22:12:37.758Z,100184.00
2023-04-10T22:17:40.763Z,100176.94
2023-04-10T22:22:39.605Z,100177.84
2023-04-10T22:27:38.360Z,100162.03
2023-04-10T22:32:45.734Z,100158.56
2023-04-10T22:37:44.669Z,100146.47
2023-04-10T22:42:44.455Z,100131.72
2023-04-10T22:47:43.361Z,100122.09
2023-04-10T22:52:42.134Z,100123.53
2023-04-10T22:57:41.338Z,100106.69
2023-04-10T23:02:40.317Z,100100.59
2023-04-10T23:07:39.142Z,100084.97
2023-04-10T23:12:38.025Z,100074.34
2023-04-10T23:17:36.767Z,100068.00
2023-04-10T23:22:35.752Z,100070.41
2023-04-10T23:27:34.550Z,100057.41
2023-04-10T23:32:33.855Z,100056.66
2023-04-10T23:37:35.992Z,100045.47
2023-04-10T23:42:34.728Z,100036.91
2023-04-10T23:47:33.476Z,100013.03
2023-04-10T23:52:32.351Z,100014.28
2023-04-10T23:57:31.224Z,100014.47
